Weather at Aviosuperficie "San Giuseppe"

Public forecast

Using degrees Celsius for public forecast. Weather courtesy of forecast.io.

Closest aviation weather report (METAR) to Aviosuperficie "San Giuseppe"

Closest report is Istrana Air Base, 10.3 nm (19.1 km) S. Retrieved 2021/06/19 19:55 UTC (41 minutes ago):

LIPS 191955Z 16003KT CAVOK 27/25 Q1013 RMK SKC VIS MIN 9999 WIND THR26 12001KT WIND THR08 15002KT BLU

Closest aviation forecast (TAF) to Aviosuperficie "San Giuseppe"

Forecast is more than 12 hours old.

Closest forecast is Istrana Air Base, 10.3 nm (19.1 km) S. Retrieved 2020/04/14 06:24 UTC (1 year ago):

TAF TAF LIPS 140800Z 1406/1418 05010KT CAVOK